Time;durP1;ratioP1;P1;durP2;ratioP2;P2;SDS_P1;SDS_P2;PMS_P1;PMS_P2;Temp;Humidity;BMP_temperature;BMP_pressure;BME280_temperature;BME280_humidity;BME280_pressure;Samples;Min_cycle;Max_cycle;Signal;HPM_P1;HPM_P2
2024/01/31 00:01:18;;;;;;;0.00;0.00;;;5.60;1.00;;;;;;5017774;28;20051;-89
2024/01/31 00:03:45;;;;;;;0.00;0.00;;;5.30;1.00;;;;;;5019596;28;20049;-89
2024/01/31 00:06:11;;;;;;;0.32;0.32;;;4.80;1.00;;;;;;5015741;28;20510;-89
2024/01/31 00:08:42;;;;;;;0.00;0.00;;;5.70;1.00;;;;;;5015307;28;20496;-89
2024/01/31 00:11:09;;;;;;;0.10;0.10;;;4.70;1.00;;;;;;5015887;28;20151;-89
2024/01/31 00:13:37;;;;;;;0.00;0.00;;;4.90;1.00;;;;;;5005672;28;20195;-89
2024/01/31 00:16:04;;;;;;;0.00;0.00;;;6.00;1.00;;;;;;5012718;28;20068;-89
2024/01/31 00:18:30;;;;;;;0.00;0.00;;;4.70;99.90;;;;;;4995515;28;20045;-89
2024/01/31 00:20:58;;;;;;;0.10;0.10;;;4.70;99.90;;;;;;5014271;28;20046;-89
2024/01/31 00:23:27;;;;;;;1.45;0.95;;;4.90;99.90;;;;;;5015214;28;20140;-89
2024/01/31 00:25:53;;;;;;;0.00;0.00;;;4.60;99.90;;;;;;5032880;28;20045;-89
2024/01/31 00:28:18;;;;;;;0.20;0.20;;;4.70;99.90;;;;;;5032543;28;20052;-89
2024/01/31 00:30:53;;;;;;;0.63;0.40;;;6.00;1.00;;;;;;5032208;28;20047;-90
2024/01/31 00:33:19;;;;;;;0.00;0.00;;;4.70;99.90;;;;;;5031984;28;20073;-89
2024/01/31 00:35:44;;;;;;;0.35;0.35;;;6.10;99.90;;;;;;5031138;28;20137;-89
2024/01/31 00:38:12;;;;;;;0.00;0.00;;;6.10;99.90;;;;;;5035432;28;20041;-89
2024/01/31 00:40:38;;;;;;;0.43;0.43;;;4.60;99.90;;;;;;5035486;28;20546;-89
2024/01/31 00:43:04;;;;;;;0.00;0.00;;;5.60;99.90;;;;;;5034881;28;20100;-89
2024/01/31 00:45:30;;;;;;;0.22;0.22;;;5.90;1.00;;;;;;5033700;28;20380;-89
2024/01/31 00:47:56;;;;;;;0.00;0.00;;;5.60;99.90;;;;;;5019655;28;20075;-89
2024/01/31 00:50:22;;;;;;;0.00;0.00;;;4.80;1.00;;;;;;5021823;28;20419;-90
2024/01/31 00:52:50;;;;;;;0.00;0.00;;;5.50;99.90;;;;;;5035076;28;20053;-89
2024/01/31 00:55:28;;;;;;;0.00;0.00;;;5.80;99.90;;;;;;5014750;28;20065;-89
2024/01/31 00:57:54;;;;;;;0.00;0.00;;;5.00;99.90;;;;;;5014435;28;20041;-90
2024/01/31 01:00:23;;;;;;;0.00;0.00;;;5.50;99.90;;;;;;5028409;28;20071;-90
2024/01/31 01:02:49;;;;;;;0.00;0.00;;;4.90;99.90;;;;;;5034501;28;20040;-89
2024/01/31 01:05:15;;;;;;;0.00;0.00;;;5.20;99.90;;;;;;5037081;28;20438;-89
2024/01/31 01:07:41;;;;;;;0.00;0.00;;;4.80;99.90;;;;;;5053238;28;20057;-90
2024/01/31 01:10:12;;;;;;;0.65;0.65;;;4.60;99.90;;;;;;5037160;28;20136;-89
2024/01/31 01:12:39;;;;;;;0.10;0.10;;;4.90;99.90;;;;;;5037963;28;20608;-89
2024/01/31 01:15:08;;;;;;;0.00;0.00;;;4.80;99.90;;;;;;5037739;28;20055;-90
2024/01/31 01:17:41;;;;;;;0.00;0.00;;;4.80;99.90;;;;;;5036318;28;20548;-89
2024/01/31 01:20:08;;;;;;;1.00;0.95;;;4.30;1.00;;;;;;5037081;28;20049;-89
2024/01/31 01:22:34;;;;;;;0.80;0.75;;;4.60;1.00;;;;;;5035916;28;20060;-90
2024/01/31 01:25:00;;;;;;;1.65;1.55;;;5.10;99.90;;;;;;5052725;28;20036;-89
2024/01/31 01:27:26;;;;;;;0.68;0.43;;;5.30;99.90;;;;;;5036519;28;20049;-89
2024/01/31 01:29:58;;;;;;;0.05;0.05;;;4.10;99.90;;;;;;5026254;28;20057;-90
2024/01/31 01:32:24;;;;;;;1.02;0.73;;;4.60;99.90;;;;;;5016689;28;20507;-89
2024/01/31 01:35:00;;;;;;;0.25;0.25;;;4.70;1.00;;;;;;5016518;28;20106;-91
2024/01/31 01:37:26;;;;;;;0.00;0.00;;;4.60;1.00;;;;;;5032989;28;20491;-89
2024/01/31 01:39:53;;;;;;;2.95;0.85;;;4.20;1.00;;;;;;5017228;28;20045;-89
2024/01/31 01:42:21;;;;;;;0.00;0.00;;;4.60;1.00;;;;;;5017363;28;20053;-89
2024/01/31 01:44:50;;;;;;;0.20;0.20;;;4.50;1.00;;;;;;5016093;28;20051;-89
2024/01/31 01:47:16;;;;;;;0.00;0.00;;;4.50;1.00;;;;;;5015900;28;20056;-89
2024/01/31 01:49:43;;;;;;;0.25;0.25;;;4.80;1.00;;;;;;5034618;28;20030;-88
2024/01/31 01:52:11;;;;;;;2.08;1.35;;;4.60;1.00;;;;;;5032951;28;20087;-88
2024/01/31 01:54:39;;;;;;;0.03;0.03;;;5.60;99.90;;;;;;5017370;28;20056;-89
2024/01/31 01:57:06;;;;;;;0.00;0.00;;;6.00;99.90;;;;;;5016326;28;20137;-88
2024/01/31 01:59:33;;;;;;;0.00;0.00;;;4.60;1.00;;;;;;5015840;28;20104;-88
2024/01/31 02:02:02;;;;;;;0.00;0.00;;;5.70;1.00;;;;;;5017062;28;20152;-88
2024/01/31 02:04:31;;;;;;;0.00;0.00;;;4.50;1.00;;;;;;5016835;28;20075;-89
2024/01/31 02:06:57;;;;;;;0.00;0.00;;;4.60;1.00;;;;;;5016789;28;20527;-89
2024/01/31 02:09:26;;;;;;;0.00;0.00;;;4.60;1.00;;;;;;5033314;28;20129;-89
2024/01/31 02:11:53;;;;;;;0.40;0.40;;;4.60;1.00;;;;;;5016822;28;20049;-88
2024/01/31 02:14:18;;;;;;;0.00;0.00;;;4.50;1.00;;;;;;5016487;28;20381;-89
2024/01/31 02:16:44;;;;;;;17.63;2.75;;;4.40;1.00;;;;;;5016754;28;20060;-89
2024/01/31 02:19:10;;;;;;;0.00;0.00;;;4.40;1.00;;;;;;5016996;28;20091;-89
2024/01/31 02:21:39;;;;;;;2.55;1.15;;;4.30;1.00;;;;;;5017391;28;20052;-89
2024/01/31 02:24:05;;;;;;;0.00;0.00;;;4.90;1.00;;;;;;5016718;28;20380;-88
2024/01/31 02:26:31;;;;;;;0.00;0.00;;;4.20;1.00;;;;;;5033206;28;20120;-88
2024/01/31 02:28:57;;;;;;;0.00;0.00;;;3.30;1.00;;;;;;5035451;28;20133;-89
2024/01/31 02:31:22;;;;;;;0.00;0.00;;;4.00;1.00;;;;;;5039233;28;20063;-88
2024/01/31 02:33:48;;;;;;;0.00;0.00;;;3.90;1.00;;;;;;5022224;28;20045;-88
2024/01/31 02:36:14;;;;;;;0.00;0.00;;;4.00;1.00;;;;;;5018736;28;20052;-89
2024/01/31 02:38:40;;;;;;;0.00;0.00;;;4.30;1.00;;;;;;5020348;28;20413;-88
2024/01/31 02:41:08;;;;;;;0.00;0.00;;;3.90;1.00;;;;;;5022764;28;20045;-88
2024/01/31 02:43:33;;;;;;;0.00;0.00;;;3.70;1.00;;;;;;5025773;28;20438;-88
2024/01/31 02:45:59;;;;;;;0.00;0.00;;;3.90;1.00;;;;;;5029900;28;20073;-88
2024/01/31 02:48:25;;;;;;;0.00;0.00;;;4.90;1.00;;;;;;5035413;28;20033;-88
2024/01/31 02:50:51;;;;;;;0.00;0.00;;;4.80;1.00;;;;;;5035067;28;20049;-88
2024/01/31 02:53:17;;;;;;;0.00;0.00;;;4.40;1.00;;;;;;5031971;28;20132;-89
2024/01/31 02:55:42;;;;;;;0.00;0.00;;;3.50;1.00;;;;;;5031691;28;20048;-89
2024/01/31 02:58:08;;;;;;;0.00;0.00;;;3.20;1.00;;;;;;5052462;28;20549;-88
2024/01/31 03:00:34;;;;;;;0.00;0.00;;;4.10;22.80;;;;;;5051504;28;20063;-88
2024/01/31 03:02:59;;;;;;;0.00;0.00;;;4.50;71.10;;;;;;5056776;28;20041;-89
2024/01/31 03:05:25;;;;;;;0.00;0.00;;;4.10;99.90;;;;;;5033904;28;20049;-88
2024/01/31 03:07:51;;;;;;;0.00;0.00;;;3.20;99.90;;;;;;5018258;28;20056;-89
2024/01/31 03:10:17;;;;;;;0.00;0.00;;;4.60;99.90;;;;;;5016596;28;20184;-89
2024/01/31 03:12:42;;;;;;;0.00;0.00;;;4.30;99.90;;;;;;5015841;28;20045;-89
2024/01/31 03:15:08;;;;;;;0.00;0.00;;;3.20;99.90;;;;;;5016373;28;20176;-88
2024/01/31 03:17:37;;;;;;;0.05;0.05;;;3.20;99.90;;;;;;5016406;28;20069;-88
2024/01/31 03:20:05;;;;;;;0.00;0.00;;;3.60;99.90;;;;;;5015917;28;20049;-89
2024/01/31 03:22:31;;;;;;;0.00;0.00;;;3.90;99.90;;;;;;5032759;28;20123;-89
2024/01/31 03:25:00;;;;;;;0.00;0.00;;;3.20;99.90;;;;;;5015628;28;20053;-89
2024/01/31 03:27:26;;;;;;;0.00;0.00;;;3.90;99.90;;;;;;5016364;28;20041;-89
2024/01/31 03:29:51;;;;;;;0.00;0.00;;;3.80;99.90;;;;;;5032262;28;20742;-89
2024/01/31 03:32:19;;;;;;;0.00;0.00;;;3.30;99.90;;;;;;5032254;28;20068;-88
2024/01/31 03:34:48;;;;;;;0.20;0.20;;;3.90;99.90;;;;;;5014316;28;20041;-88
2024/01/31 03:37:14;;;;;;;0.00;0.00;;;3.80;99.90;;;;;;5015486;28;20053;-88
2024/01/31 03:39:40;;;;;;;0.00;0.00;;;3.10;99.90;;;;;;5014468;28;20545;-88
2024/01/31 03:42:05;;;;;;;1.25;0.95;;;3.60;99.90;;;;;;5032021;28;20042;-88
2024/01/31 03:44:34;;;;;;;0.00;0.00;;;3.10;99.90;;;;;;5015323;28;20192;-89
2024/01/31 03:47:00;;;;;;;0.00;0.00;;;3.10;99.90;;;;;;5014729;28;20042;-88
2024/01/31 03:49:25;;;;;;;0.00;0.00;;;3.00;99.90;;;;;;5023522;28;20108;-89
2024/01/31 03:51:51;;;;;;;2.97;1.02;;;3.60;99.90;;;;;;5035073;28;20033;-89
2024/01/31 03:54:19;;;;;;;0.00;0.00;;;3.00;99.90;;;;;;5034936;28;20462;-89
2024/01/31 03:56:45;;;;;;;0.80;0.80;;;3.30;99.90;;;;;;5034836;28;20402;-88
2024/01/31 03:59:11;;;;;;;0.00;0.00;;;3.00;99.90;;;;;;5033988;28;20056;-89
2024/01/31 04:01:40;;;;;;;0.00;0.00;;;3.00;99.90;;;;;;5051256;28;20446;-89
2024/01/31 04:04:08;;;;;;;0.00;0.00;;;4.20;99.90;;;;;;5033608;28;20041;-88
2024/01/31 04:06:34;;;;;;;0.00;0.00;;;2.90;99.90;;;;;;5034397;28;20102;-88
2024/01/31 04:08:59;;;;;;;0.00;0.00;;;2.80;99.90;;;;;;5036910;28;20025;-88
2024/01/31 04:11:25;;;;;;;0.00;0.00;;;2.80;99.90;;;;;;5036580;28;20052;-88
2024/01/31 04:13:51;;;;;;;0.00;0.00;;;2.60;99.90;;;;;;5036393;28;20521;-88
2024/01/31 04:16:17;;;;;;;0.00;0.00;;;3.50;99.90;;;;;;5036947;28;20057;-88
2024/01/31 04:18:43;;;;;;;0.00;0.00;;;2.30;99.90;;;;;;5053813;28;20499;-89
2024/01/31 04:21:26;;;;;;;0.00;0.00;;;3.80;99.90;;;;;;5036945;28;20040;-87
2024/01/31 04:23:51;;;;;;;0.00;0.00;;;3.40;99.90;;;;;;5019924;28;20106;-88
2024/01/31 04:26:19;;;;;;;0.00;0.00;;;3.40;99.90;;;;;;5018281;28;20042;-88
2024/01/31 04:28:47;;;;;;;0.20;0.20;;;2.10;99.90;;;;;;5038996;28;20481;-88
2024/01/31 04:31:14;;;;;;;0.00;0.00;;;2.60;99.90;;;;;;5037957;28;20137;-88
2024/01/31 04:33:41;;;;;;;0.00;0.00;;;2.20;99.90;;;;;;5036511;28;20036;-88
2024/01/31 04:36:07;;;;;;;0.00;0.00;;;1.80;99.90;;;;;;5033884;28;20549;-88
2024/01/31 04:38:33;;;;;;;0.10;0.10;;;0.80;99.90;;;;;;5033529;28;20123;-89
2024/01/31 04:40:59;;;;;;;1.33;0.60;;;2.50;99.90;;;;;;5032082;28;20049;-89
2024/01/31 04:43:27;;;;;;;0.00;0.00;;;2.60;99.90;;;;;;5033371;28;20084;-88
2024/01/31 04:45:55;;;;;;;0.00;0.00;;;1.30;99.90;;;;;;5051377;28;20057;-89
2024/01/31 04:48:21;;;;;;;0.00;0.00;;;1.30;99.90;;;;;;5035185;28;20060;-89
2024/01/31 04:50:50;;;;;;;0.00;0.00;;;1.20;99.90;;;;;;5014771;28;20053;-89
2024/01/31 04:53:16;;;;;;;0.00;0.00;;;2.20;99.90;;;;;;5013625;28;20065;-89
2024/01/31 04:55:44;;;;;;;0.00;0.00;;;1.30;99.90;;;;;;5014514;28;20093;-88
2024/01/31 04:58:13;;;;;;;0.00;0.00;;;1.40;99.90;;;;;;5014016;28;20681;-89
2024/01/31 05:00:42;;;;;;;0.00;0.00;;;2.40;99.90;;;;;;5030506;28;20115;-88
2024/01/31 05:03:08;;;;;;;0.00;0.00;;;1.20;99.90;;;;;;5014205;28;20245;-88
2024/01/31 05:05:34;;;;;;;0.00;0.00;;;1.80;99.90;;;;;;5014475;28;20049;-88
2024/01/31 05:08:02;;;;;;;0.25;0.25;;;1.80;1.00;;;;;;5014729;28;20050;-88
2024/01/31 05:10:28;;;;;;;0.00;0.00;;;1.10;1.00;;;;;;5013057;28;20045;-88
2024/01/31 05:12:54;;;;;;;0.00;0.00;;;1.70;1.00;;;;;;5013781;28;20056;-88
2024/01/31 05:15:20;;;;;;;0.00;0.00;;;0.70;1.00;;;;;;5030653;28;20048;-88
2024/01/31 05:17:46;;;;;;;0.00;0.00;;;1.70;1.00;;;;;;5013604;28;20045;-88
2024/01/31 05:20:12;;;;;;;0.00;0.00;;;2.50;1.00;;;;;;5013264;28;20056;-88
2024/01/31 05:22:38;;;;;;;0.00;0.00;;;1.40;1.00;;;;;;5029544;28;20041;-88
2024/01/31 05:25:06;;;;;;;0.00;0.00;;;2.20;1.00;;;;;;5030574;28;20049;-88
2024/01/31 05:27:32;;;;;;;0.00;0.00;;;1.20;1.00;;;;;;5014276;28;20091;-88
2024/01/31 05:29:58;;;;;;;0.00;0.00;;;0.60;1.00;;;;;;5014927;28;20483;-87
2024/01/31 05:32:23;;;;;;;0.00;0.00;;;2.20;1.00;;;;;;5017255;28;20123;-88
2024/01/31 05:34:49;;;;;;;0.00;0.00;;;2.20;1.00;;;;;;5031969;28;20083;-87
2024/01/31 05:37:15;;;;;;;0.00;0.00;;;2.80;1.00;;;;;;5021875;28;20045;-88
2024/01/31 05:39:41;;;;;;;0.00;0.00;;;1.50;1.00;;;;;;5017309;28;20133;-88
2024/01/31 05:42:06;;;;;;;0.00;0.00;;;1.90;1.00;;;;;;5032265;28;20461;-88
2024/01/31 05:44:32;;;;;;;0.00;0.00;;;2.40;1.00;;;;;;5032441;28;20049;-88
2024/01/31 05:46:58;;;;;;;0.00;0.00;;;2.00;1.00;;;;;;5015742;28;20050;-88
2024/01/31 05:49:24;;;;;;;0.00;0.00;;;3.10;1.00;;;;;;5032484;28;20123;-87
2024/01/31 05:51:52;;;;;;;0.00;0.00;;;2.30;1.00;;;;;;5014677;28;20027;-87
2024/01/31 05:54:19;;;;;;;0.00;0.00;;;2.40;1.00;;;;;;5015524;28;20095;-88
2024/01/31 05:56:50;;;;;;;0.00;0.00;;;2.30;1.00;;;;;;5014730;28;20049;-88
2024/01/31 05:59:16;;;;;;;0.00;0.00;;;3.10;1.00;;;;;;5019667;28;20061;-87
2024/01/31 06:01:46;;;;;;;0.00;0.00;;;3.60;1.00;;;;;;5036383;28;20079;-88
2024/01/31 06:04:14;;;;;;;0.00;0.00;;;2.50;1.00;;;;;;5034027;28;20439;-87
2024/01/31 06:06:40;;;;;;;0.00;0.00;;;3.00;1.00;;;;;;5033664;28;20073;-87
2024/01/31 06:09:06;;;;;;;0.00;0.00;;;3.00;1.00;;;;;;5031326;28;20076;-88
2024/01/31 06:11:32;;;;;;;0.00;0.00;;;3.00;1.00;;;;;;5037849;28;20110;-87
2024/01/31 06:13:58;;;;;;;0.95;0.65;;;3.10;1.00;;;;;;5023251;28;20029;-87
2024/01/31 06:16:26;;;;;;;0.10;0.10;;;2.70;1.00;;;;;;5021265;28;20049;-88
2024/01/31 06:18:56;;;;;;;0.00;0.00;;;2.30;1.00;;;;;;5020484;28;20051;-88
2024/01/31 06:21:25;;;;;;;0.00;0.00;;;3.30;1.00;;;;;;5034750;28;20044;-88
2024/01/31 06:23:51;;;;;;;0.00;0.00;;;3.90;1.00;;;;;;5050602;28;20499;-88
2024/01/31 06:26:19;;;;;;;0.00;0.00;;;2.70;1.00;;;;;;5050693;28;20061;-88
2024/01/31 06:28:48;;;;;;;0.00;0.00;;;1.70;1.00;;;;;;5054431;28;20051;-87
2024/01/31 06:31:24;;;;;;;0.00;0.00;;;2.70;1.00;;;;;;5033681;28;20045;-88
2024/01/31 06:33:52;;;;;;;0.00;0.00;;;2.80;1.00;;;;;;5051035;28;20083;-88
2024/01/31 06:36:19;;;;;;;0.00;0.00;;;2.20;1.00;;;;;;5023349;28;20451;-88
2024/01/31 06:38:46;;;;;;;0.00;0.00;;;3.70;1.00;;;;;;5030587;28;20033;-88
2024/01/31 06:41:14;;;;;;;0.00;0.00;;;3.80;1.00;;;;;;5033152;28;20449;-88
2024/01/31 06:43:40;;;;;;;0.00;0.00;;;3.80;1.00;;;;;;5053844;28;20037;-88
2024/01/31 06:46:05;;;;;;;3.40;0.47;;;3.50;1.00;;;;;;5035362;28;20150;-88
2024/01/31 06:48:31;;;;;;;0.00;0.00;;;3.20;99.90;;;;;;5053732;28;20041;-88
2024/01/31 06:50:57;;;;;;;0.00;0.00;;;3.30;99.90;;;;;;5035797;28;20130;-88
2024/01/31 06:53:23;;;;;;;0.00;0.00;;;3.40;99.90;;;;;;5035637;28;20079;-88
2024/01/31 06:55:48;;;;;;;0.00;0.00;;;4.00;99.90;;;;;;5052055;28;20045;-87
2024/01/31 06:58:14;;;;;;;0.00;0.00;;;3.40;99.90;;;;;;5035871;28;20021;-88
2024/01/31 07:00:40;;;;;;;0.00;0.00;;;3.40;99.90;;;;;;5052206;28;20079;-89
2024/01/31 07:03:08;;;;;;;0.00;0.00;;;4.20;99.90;;;;;;5035515;28;20052;-89
2024/01/31 07:05:34;;;;;;;0.00;0.00;;;3.20;99.90;;;;;;5034644;28;20476;-88
2024/01/31 07:08:00;;;;;;;28.47;0.93;;;3.40;99.90;;;;;;5035462;28;20047;-89
2024/01/31 07:10:26;;;;;;;0.00;0.00;;;3.80;99.90;;;;;;5035264;28;20529;-88
2024/01/31 07:12:53;;;;;;;0.25;0.25;;;4.50;99.90;;;;;;5036475;28;20041;-88
2024/01/31 07:15:20;;;;;;;0.00;0.00;;;4.30;99.90;;;;;;5035848;28;20053;-88
2024/01/31 07:17:46;;;;;;;0.30;0.28;;;3.70;1.00;;;;;;5039087;28;20128;-88
2024/01/31 07:20:12;;;;;;;0.00;0.00;;;4.60;99.90;;;;;;5039466;28;20589;-88
2024/01/31 07:22:40;;;;;;;0.10;0.10;;;3.80;99.90;;;;;;5039028;28;20064;-88
2024/01/31 07:25:10;;;;;;;0.00;0.00;;;3.80;99.90;;;;;;5039113;28;20068;-88
2024/01/31 07:27:40;;;;;;;0.00;0.00;;;3.80;99.90;;;;;;5034755;28;20124;-88
2024/01/31 07:30:10;;;;;;;0.00;0.00;;;3.80;99.90;;;;;;5018893;28;20045;-88
2024/01/31 07:32:37;;;;;;;0.00;0.00;;;3.90;99.90;;;;;;5018691;28;20495;-88
2024/01/31 07:35:03;;;;;;;0.00;0.00;;;4.80;1.00;;;;;;5019426;28;20069;-88
2024/01/31 07:37:30;;;;;;;0.00;0.00;;;3.90;99.90;;;;;;5022181;28;20055;-89
2024/01/31 07:39:57;;;;;;;0.00;0.00;;;3.60;99.90;;;;;;5038191;28;20115;-88
2024/01/31 07:42:25;;;;;;;0.10;0.10;;;5.80;99.90;;;;;;5038233;28;20106;-88
2024/01/31 07:44:53;;;;;;;0.00;0.00;;;5.40;1.00;;;;;;5055161;28;20045;-88
2024/01/31 07:47:19;;;;;;;0.00;0.00;;;5.50;99.90;;;;;;5038469;28;20083;-88
2024/01/31 07:49:45;;;;;;;0.00;0.00;;;4.10;99.90;;;;;;5039132;28;20059;-88
2024/01/31 07:52:11;;;;;;;0.05;0.03;;;4.80;99.90;;;;;;5055088;28;20049;-88
2024/01/31 07:54:37;;;;;;;0.10;0.10;;;4.10;99.90;;;;;;5038983;28;20049;-88
2024/01/31 07:57:03;;;;;;;0.17;0.15;;;3.70;99.90;;;;;;5038725;28;20049;-88
2024/01/31 07:59:32;;;;;;;14.18;1.08;;;4.10;99.90;;;;;;5038095;28;20061;-88
2024/01/31 08:02:00;;;;;;;0.32;0.32;;;5.10;99.90;;;;;;5054109;28;20049;-88
2024/01/31 08:04:26;;;;;;;0.00;0.00;;;4.80;92.20;;;;;;5054360;28;20064;-88
2024/01/31 08:06:52;;;;;;;0.00;0.00;;;5.40;99.90;;;;;;5039218;28;20037;-87
2024/01/31 08:09:18;;;;;;;0.00;0.00;;;4.10;99.90;;;;;;5039473;28;20056;-88
2024/01/31 08:11:44;;;;;;;0.08;0.08;;;4.20;99.90;;;;;;5046746;28;20049;-87
2024/01/31 08:14:11;;;;;;;0.00;0.00;;;4.00;99.90;;;;;;5048071;28;20137;-87
2024/01/31 08:16:37;;;;;;;0.00;0.00;;;5.00;99.90;;;;;;5052131;28;20624;-87
2024/01/31 08:19:04;;;;;;;0.10;0.10;;;4.20;99.90;;;;;;5049120;28;20072;-89
2024/01/31 08:21:36;;;;;;;0.20;0.20;;;4.40;95.30;;;;;;5036339;28;20657;-89
2024/01/31 08:26:50;;;;;;;0.00;0.00;;;4.50;99.90;;;;;;5039137;28;20037;-89
2024/01/31 08:29:19;;;;;;;0.00;0.00;;;5.50;1.00;;;;;;5019189;28;20101;-89
2024/01/31 08:31:59;;;;;;;;;;;;;;;;;;;;;
2024/01/31 08:34:35;;;;;;;;;;;;;;;;;;;;;
2024/01/31 08:37:14;;;;;;;;;;;;;;;;;;;;;
2024/01/31 08:39:46;;;;;;;0.05;0.05;;;4.70;99.90;;;;;;5067186;28;20056;-89
2024/01/31 08:42:28;;;;;;;0.05;0.05;;;4.90;99.90;;;;;;5049440;28;20049;-88
2024/01/31 08:44:56;;;;;;;0.28;0.25;;;4.10;99.90;;;;;;5034257;28;20053;-89
2024/01/31 08:47:24;;;;;;;0.10;0.10;;;5.80;44.30;;;;;;5032945;28;20088;-89
2024/01/31 08:50:00;;;;;;;0.00;0.00;;;5.90;99.90;;;;;;5015353;28;20061;-88
2024/01/31 08:52:30;;;;;;;0.00;0.00;;;5.70;92.00;;;;;;5042604;28;20052;-88
2024/01/31 08:55:12;;;;;;;0.00;0.00;;;5.00;71.20;;;;;;5035176;28;20060;-88
2024/01/31 08:57:38;;;;;;;0.10;0.10;;;5.00;66.80;;;;;;5050885;28;20045;-89
2024/01/31 09:00:07;;;;;;;0.32;0.32;;;5.30;1.00;;;;;;5032367;28;20085;-89
2024/01/31 09:02:34;;;;;;;0.00;0.00;;;5.10;1.00;;;;;;5033773;28;20064;-89
2024/01/31 09:05:02;;;;;;;0.30;0.28;;;5.20;1.00;;;;;;5033331;28;20051;-88
2024/01/31 09:07:38;;;;;;;;;;;;;;;;;;;;;
2024/01/31 09:10:26;;;;;;;;;;;;;;;;;;;;;
2024/01/31 09:12:53;;;;;;;0.00;0.00;;;5.30;99.90;;;;;;5050924;28;20482;-88
2024/01/31 09:15:19;;;;;;;0.47;0.47;;;5.30;99.90;;;;;;5035433;28;20352;-87
2024/01/31 09:17:47;;;;;;;0.00;0.00;;;6.60;99.90;;;;;;5032307;28;20080;-88
2024/01/31 09:20:14;;;;;;;0.20;0.20;;;5.40;1.00;;;;;;5013624;28;20053;-87
2024/01/31 09:22:40;;;;;;;0.90;0.63;;;5.50;99.90;;;;;;5032269;28;20048;-87
2024/01/31 09:25:06;;;;;;;0.00;0.00;;;6.30;99.90;;;;;;5034691;28;20051;-87
2024/01/31 09:27:32;;;;;;;0.10;0.10;;;5.60;99.90;;;;;;5034141;28;20052;-87
2024/01/31 09:29:58;;;;;;;0.22;0.22;;;5.70;99.90;;;;;;5029533;28;20049;-87
2024/01/31 09:32:24;;;;;;;1.08;0.98;;;5.80;99.90;;;;;;5028727;28;20041;-87
2024/01/31 09:34:49;;;;;;;1.45;0.57;;;7.10;99.90;;;;;;5013995;28;20052;-87
2024/01/31 09:37:15;;;;;;;0.00;0.00;;;5.90;99.90;;;;;;5013421;28;20072;-87
2024/01/31 09:39:43;;;;;;;0.38;0.32;;;6.00;99.90;;;;;;5031752;28;20064;-87
2024/01/31 09:42:09;;;;;;;0.08;0.08;;;6.00;99.90;;;;;;5049451;28;20033;-87
2024/01/31 09:44:35;;;;;;;0.15;0.13;;;6.10;99.90;;;;;;5033319;28;20099;-87
2024/01/31 09:47:01;;;;;;;0.00;0.00;;;6.10;99.90;;;;;;5056815;28;20049;-87
2024/01/31 09:49:27;;;;;;;0.00;0.00;;;6.90;99.90;;;;;;5049466;28;20102;-87
2024/01/31 09:52:03;;;;;;;0.23;0.23;;;6.30;99.90;;;;;;5026910;28;20061;-87
2024/01/31 09:54:29;;;;;;;0.00;0.00;;;6.60;99.90;;;;;;5012870;28;20316;-87
2024/01/31 09:56:55;;;;;;;0.00;0.00;;;6.40;99.90;;;;;;5013030;28;20049;-87
2024/01/31 09:59:27;;;;;;;1.17;0.55;;;6.40;99.90;;;;;;5044542;28;20053;-86
2024/01/31 10:01:55;;;;;;;0.15;0.15;;;5.60;99.90;;;;;;5030657;28;20084;-87
2024/01/31 10:04:21;;;;;;;0.00;0.00;;;6.50;99.90;;;;;;5028302;28;20423;-86
2024/01/31 10:06:47;;;;;;;0.10;0.10;;;6.70;99.90;;;;;;5030041;28;20064;-86
2024/01/31 10:09:13;;;;;;;1.13;0.68;;;6.60;99.90;;;;;;5031715;28;20049;-87
2024/01/31 10:11:45;;;;;;;6.25;1.00;;;6.60;99.90;;;;;;5033218;28;20037;-86
2024/01/31 10:14:12;;;;;;;0.08;0.08;;;6.70;99.90;;;;;;5030405;28;20072;-86
2024/01/31 10:16:37;;;;;;;0.20;0.20;;;6.70;92.10;;;;;;5014849;28;20041;-86
2024/01/31 10:19:05;;;;;;;0.00;0.00;;;6.70;57.20;;;;;;5025274;28;20049;-86
2024/01/31 10:21:32;;;;;;;0.00;0.00;;;6.70;43.80;;;;;;5036637;28;20050;-86
2024/01/31 10:23:59;;;;;;;0.00;0.00;;;6.80;62.90;;;;;;5018369;28;20080;-86
2024/01/31 10:26:30;;;;;;;0.10;0.10;;;6.80;43.70;;;;;;5030810;28;20053;-86
2024/01/31 10:28:58;;;;;;;0.20;0.20;;;8.10;52.20;;;;;;5036742;28;20051;-86
2024/01/31 10:31:27;;;;;;;3.05;1.08;;;6.90;14.50;;;;;;5048508;28;20049;-85
2024/01/31 10:33:52;;;;;;;0.82;0.82;;;7.30;21.80;;;;;;5031800;28;20044;-86
2024/01/31 10:36:19;;;;;;;0.00;0.00;;;7.10;5.20;;;;;;5031690;28;20121;-85
2024/01/31 10:38:45;;;;;;;0.15;0.15;;;7.10;1.00;;;;;;5043675;28;20097;-86
2024/01/31 10:41:15;;;;;;;0.00;0.00;;;7.20;4.30;;;;;;5028904;28;20532;-86
2024/01/31 10:43:43;;;;;;;1.55;0.75;;;7.20;1.00;;;;;;5012371;28;20167;-86
2024/01/31 10:46:11;;;;;;;0.25;0.25;;;7.20;1.00;;;;;;5029426;28;20288;-86
2024/01/31 10:48:42;;;;;;;3.33;1.30;;;8.50;1.00;;;;;;5033404;28;20506;-86
2024/01/31 10:51:12;;;;;;;0.10;0.10;;;8.40;1.00;;;;;;5051123;28;20053;-86
2024/01/31 10:53:38;;;;;;;0.43;0.43;;;7.20;1.00;;;;;;5036253;28;20040;-86
2024/01/31 10:56:06;;;;;;;7.53;0.60;;;7.20;1.00;;;;;;5036568;28;20049;-86
2024/01/31 10:58:33;;;;;;;1.42;1.15;;;7.20;1.00;;;;;;5034593;28;20057;-85
2024/01/31 11:01:03;;;;;;;1.75;0.57;;;7.20;1.00;;;;;;5041292;28;20061;-86
2024/01/31 11:03:29;;;;;;;0.52;0.40;;;7.20;1.00;;;;;;5032632;28;20140;-86
2024/01/31 11:05:55;;;;;;;0.17;0.17;;;7.40;1.00;;;;;;5042752;28;20072;-86
2024/01/31 11:08:23;;;;;;;0.00;0.00;;;7.30;1.00;;;;;;5039010;28;20604;-86
2024/01/31 11:10:49;;;;;;;0.35;0.13;;;7.40;1.00;;;;;;5040579;28;20049;-86
2024/01/31 11:13:18;;;;;;;0.00;0.00;;;7.40;1.00;;;;;;5031495;28;20124;-86
2024/01/31 11:15:46;;;;;;;0.28;0.28;;;7.40;1.00;;;;;;5033488;28;20045;-85
2024/01/31 11:18:14;;;;;;;0.28;0.28;;;7.40;1.00;;;;;;5032516;28;20056;-86
2024/01/31 11:20:49;;;;;;;0.55;0.55;;;7.50;1.00;;;;;;5024730;28;20051;-86
2024/01/31 11:23:16;;;;;;;0.65;0.55;;;7.50;1.00;;;;;;5032447;28;20507;-86
2024/01/31 11:25:45;;;;;;;0.00;0.00;;;7.70;1.00;;;;;;5014502;28;20397;-85
2024/01/31 11:28:11;;;;;;;1.38;0.47;;;8.30;1.00;;;;;;5014031;28;20056;-86
2024/01/31 11:30:41;;;;;;;0.00;0.00;;;7.60;1.00;;;;;;5041444;28;20069;-85
2024/01/31 11:33:06;;;;;;;0.38;0.10;;;7.60;1.00;;;;;;5032290;28;20392;-86
2024/01/31 11:35:35;;;;;;;0.10;0.10;;;7.60;1.00;;;;;;5050146;28;20055;-85
2024/01/31 11:38:01;;;;;;;2.17;1.38;;;7.60;1.00;;;;;;5032862;28;20427;-86
2024/01/31 11:40:30;;;;;;;0.73;0.73;;;7.60;1.00;;;;;;5034145;28;20055;-85
2024/01/31 11:42:58;;;;;;;0.68;0.68;;;8.60;1.00;;;;;;5051216;28;20049;-86
2024/01/31 11:45:30;;;;;;;0.30;0.30;;;7.60;1.00;;;;;;5049567;28;20033;-85
2024/01/31 11:47:56;;;;;;;0.00;0.00;;;7.50;1.00;;;;;;5032491;28;20037;-85
2024/01/31 11:50:24;;;;;;;0.00;0.00;;;7.40;1.00;;;;;;5021495;28;20076;-85
2024/01/31 11:52:51;;;;;;;0.10;0.10;;;7.50;1.00;;;;;;5033350;28;20052;-85
2024/01/31 11:55:28;;;;;;;0.60;0.60;;;7.50;1.00;;;;;;5049696;28;20083;-86
2024/01/31 11:57:54;;;;;;;0.15;0.15;;;7.50;1.00;;;;;;5032752;28;20049;-85
2024/01/31 12:00:20;;;;;;;0.10;0.10;;;7.40;1.00;;;;;;5027157;28;20571;-85
2024/01/31 12:02:47;;;;;;;0.47;0.47;;;7.40;1.00;;;;;;5030539;28;20054;-85
2024/01/31 12:05:13;;;;;;;0.00;0.00;;;7.40;1.00;;;;;;5013998;28;20056;-85
2024/01/31 12:07:39;;;;;;;0.00;0.00;;;7.30;1.00;;;;;;5029427;28;20049;-85
2024/01/31 12:10:08;;;;;;;0.20;0.20;;;7.40;1.00;;;;;;5039501;28;20049;-85
2024/01/31 12:12:41;;;;;;;0.20;0.20;;;7.30;1.00;;;;;;5013751;28;20049;-85
2024/01/31 12:15:11;;;;;;;0.10;0.10;;;7.30;1.00;;;;;;5035434;28;20132;-85
2024/01/31 12:17:37;;;;;;;0.10;0.10;;;7.30;1.00;;;;;;5018471;28;20943;-84
2024/01/31 12:20:05;;;;;;;0.13;0.13;;;8.10;1.00;;;;;;5033847;28;20073;-85
2024/01/31 12:22:32;;;;;;;1.13;0.65;;;7.30;1.00;;;;;;5016425;28;20096;-86
2024/01/31 12:24:59;;;;;;;1.05;0.77;;;7.30;1.00;;;;;;5029924;28;20049;-85
2024/01/31 12:27:25;;;;;;;14.40;1.35;;;7.30;1.00;;;;;;5031678;28;20041;-85
2024/01/31 12:29:51;;;;;;;0.28;0.28;;;7.50;1.00;;;;;;5042475;28;20087;-85
2024/01/31 12:32:17;;;;;;;0.43;0.40;;;7.20;1.00;;;;;;5046551;28;20050;-86
2024/01/31 12:34:43;;;;;;;2.63;1.75;;;7.20;1.00;;;;;;5047643;28;20093;-85
2024/01/31 12:37:08;;;;;;;0.90;0.90;;;7.20;1.00;;;;;;5050548;28;20408;-85
2024/01/31 12:39:35;;;;;;;0.73;0.65;;;7.20;1.00;;;;;;5039575;28;20131;-85
2024/01/31 12:42:02;;;;;;;0.98;0.68;;;8.20;1.00;;;;;;5029971;28;20060;-85
2024/01/31 12:44:27;;;;;;;0.10;0.10;;;7.30;1.00;;;;;;5042406;28;20067;-85
2024/01/31 12:46:53;;;;;;;0.40;0.40;;;7.20;1.00;;;;;;5045888;28;20048;-85
2024/01/31 12:49:19;;;;;;;1.73;0.93;;;8.10;1.00;;;;;;5048929;28;20045;-85
2024/01/31 12:51:49;;;;;;;0.73;0.50;;;8.50;1.00;;;;;;5050138;28;20080;-86
2024/01/31 12:54:15;;;;;;;0.93;0.77;;;7.30;1.00;;;;;;5049750;28;20399;-86
2024/01/31 12:56:41;;;;;;;6.70;2.97;;;7.40;1.00;;;;;;5043546;28;20083;-86
2024/01/31 12:59:10;;;;;;;0.03;0.03;;;7.50;1.00;;;;;;5015077;28;20110;-86
2024/01/31 13:01:38;;;;;;;0.10;0.10;;;7.60;1.00;;;;;;5044639;28;20045;-86
2024/01/31 13:04:04;;;;;;;0.00;0.00;;;7.60;1.00;;;;;;5069154;28;20044;-86
2024/01/31 13:06:32;;;;;;;0.20;0.20;;;7.60;1.00;;;;;;5024483;28;20038;-86
2024/01/31 13:08:57;;;;;;;0.43;0.35;;;7.60;1.00;;;;;;5016162;28;20056;-86
2024/01/31 13:11:23;;;;;;;0.28;0.28;;;7.60;1.00;;;;;;5033008;28;20041;-86